Time;durP1;ratioP1;P1;durP2;ratioP2;P2;SDS_P1;SDS_P2;PMS_P1;PMS_P2;Temp;Humidity;BMP_temperature;BMP_pressure;BME280_temperature;BME280_humidity;BME280_pressure;Samples;Min_cycle;Max_cycle;Signal;HPM_P1;HPM_P2
2021/08/07 00:00:41;;;;;;;7.47;3.53;;;;;;;;;;5084798;28;20032;-70
2021/08/07 00:03:07;;;;;;;5.20;3.10;;;;;;;;;;5083722;28;20032;-70
2021/08/07 00:05:34;;;;;;;7.78;3.17;;;;;;;;;;5083108;28;20055;-70
2021/08/07 00:08:00;;;;;;;5.18;2.97;;;;;;;;;;5084324;28;20051;-70
2021/08/07 00:10:26;;;;;;;5.28;2.83;;;;;;;;;;5083833;28;20478;-70
2021/08/07 00:12:52;;;;;;;3.60;2.95;;;;;;;;;;5085118;28;20032;-70
2021/08/07 00:15:19;;;;;;;4.55;2.58;;;;;;;;;;5084536;28;20107;-70
2021/08/07 00:17:45;;;;;;;4.93;2.88;;;;;;;;;;5084592;28;20046;-70
2021/08/07 00:20:11;;;;;;;3.78;2.60;;;;;;;;;;5084942;28;20522;-70
2021/08/07 00:22:37;;;;;;;6.30;2.85;;;;;;;;;;5084807;28;20475;-70
2021/08/07 00:25:04;;;;;;;5.05;2.63;;;;;;;;;;5082869;28;20043;-70
2021/08/07 00:27:31;;;;;;;6.05;2.70;;;;;;;;;;5084998;28;20046;-70
2021/08/07 00:29:57;;;;;;;6.35;2.83;;;;;;;;;;5084643;28;20035;-70
2021/08/07 00:32:23;;;;;;;7.15;2.50;;;;;;;;;;5085041;28;20018;-71
2021/08/07 00:34:49;;;;;;;4.40;2.70;;;;;;;;;;5081332;28;20024;-70
2021/08/07 00:37:16;;;;;;;5.65;2.75;;;;;;;;;;5084611;28;20107;-70
2021/08/07 00:39:42;;;;;;;6.25;2.70;;;;;;;;;;5085005;28;20028;-71
2021/08/07 00:42:08;;;;;;;5.15;2.58;;;;;;;;;;5084361;28;20034;-70
2021/08/07 00:44:34;;;;;;;5.60;2.47;;;;;;;;;;5081691;28;20036;-70
2021/08/07 00:47:00;;;;;;;6.25;2.50;;;;;;;;;;5084705;28;20028;-70
2021/08/07 00:49:26;;;;;;;4.15;2.20;;;;;;;;;;5079584;28;20024;-70
2021/08/07 00:51:52;;;;;;;4.05;2.10;;;;;;;;;;5077966;28;20023;-70
2021/08/07 00:54:19;;;;;;;5.15;2.47;;;;;;;;;;5072311;28;20077;-70
2021/08/07 00:56:45;;;;;;;7.85;2.53;;;;;;;;;;5067158;28;20483;-70
2021/08/07 00:59:12;;;;;;;6.18;3.15;;;;;;;;;;5072954;28;20058;-70
2021/08/07 01:01:42;;;;;;;5.15;2.60;;;;;;;;;;5074839;28;20161;-70
2021/08/07 01:04:09;;;;;;;5.32;2.53;;;;;;;;;;5070788;28;20037;-70
2021/08/07 01:06:50;;;;;;;5.22;2.80;;;;;;;;;;5071123;28;20088;-70
2021/08/07 01:09:36;;;;;;;7.50;3.33;;;;;;;;;;5074973;28;20122;-70
2021/08/07 01:12:06;;;;;;;7.35;3.38;;;;;;;;;;5071013;28;20016;-70
2021/08/07 01:14:36;;;;;;;9.40;3.40;;;;;;;;;;5068889;28;20120;-70
2021/08/07 01:17:08;;;;;;;10.23;3.08;;;;;;;;;;5071063;28;20462;-70
2021/08/07 01:19:38;;;;;;;5.13;2.88;;;;;;;;;;5073174;28;20025;-70
2021/08/07 01:22:05;;;;;;;4.22;2.58;;;;;;;;;;5078292;28;20060;-70
2021/08/07 01:24:41;;;;;;;5.63;2.58;;;;;;;;;;5072848;28;20038;-70
2021/08/07 01:27:23;;;;;;;6.47;2.92;;;;;;;;;;5075821;28;20413;-70
2021/08/07 01:29:49;;;;;;;5.70;2.75;;;;;;;;;;5067670;28;20050;-70
2021/08/07 01:32:16;;;;;;;4.72;2.85;;;;;;;;;;5073310;28;20021;-70
2021/08/07 01:34:43;;;;;;;6.10;2.97;;;;;;;;;;5073072;28;20016;-70
2021/08/07 01:37:09;;;;;;;6.53;3.92;;;;;;;;;;5073186;28;20122;-70
2021/08/07 01:39:35;;;;;;;5.18;2.97;;;;;;;;;;5072620;28;20036;-70
2021/08/07 01:42:02;;;;;;;5.25;2.30;;;;;;;;;;5072671;28;20102;-70
2021/08/07 01:44:28;;;;;;;8.35;2.58;;;;;;;;;;5067291;28;20032;-70
2021/08/07 01:46:58;;;;;;;7.68;2.50;;;;;;;;;;5066293;28;20017;-70
2021/08/07 01:49:31;;;;;;;3.75;2.65;;;;;;;;;;5069991;28;20428;-70
2021/08/07 01:51:59;;;;;;;7.80;2.90;;;;;;;;;;5068516;28;20038;-70
2021/08/07 01:54:31;;;;;;;3.25;2.30;;;;;;;;;;5074422;28;20032;-70
2021/08/07 01:56:58;;;;;;;4.60;2.30;;;;;;;;;;5078892;28;20073;-70
2021/08/07 01:59:24;;;;;;;3.60;2.42;;;;;;;;;;5075436;28;20036;-71
2021/08/07 02:01:51;;;;;;;4.43;2.70;;;;;;;;;;5073791;28;20025;-70
2021/08/07 02:04:19;;;;;;;4.72;2.53;;;;;;;;;;5077073;28;20074;-70
2021/08/07 02:06:46;;;;;;;2.97;2.20;;;;;;;;;;5074724;28;20767;-71
2021/08/07 02:09:12;;;;;;;5.00;2.45;;;;;;;;;;5074727;28;20028;-70
2021/08/07 02:11:40;;;;;;;7.57;2.78;;;;;;;;;;5075399;28;21706;-70
2021/08/07 02:14:07;;;;;;;4.65;2.40;;;;;;;;;;5072332;28;20070;-70
2021/08/07 02:16:33;;;;;;;4.25;2.58;;;;;;;;;;5068118;28;20027;-70
2021/08/07 02:19:01;;;;;;;5.53;2.78;;;;;;;;;;5068023;28;20067;-70
2021/08/07 02:21:27;;;;;;;6.20;2.60;;;;;;;;;;5071938;28;20021;-70
2021/08/07 02:23:53;;;;;;;7.93;2.70;;;;;;;;;;5076007;28;20745;-70
2021/08/07 02:26:22;;;;;;;6.60;3.17;;;;;;;;;;5075505;28;20051;-70
2021/08/07 02:28:48;;;;;;;4.40;2.72;;;;;;;;;;5077773;28;20028;-70
2021/08/07 02:31:15;;;;;;;6.82;2.80;;;;;;;;;;5071837;28;20511;-70
2021/08/07 02:33:41;;;;;;;4.43;2.60;;;;;;;;;;5076321;28;20028;-70
2021/08/07 02:36:09;;;;;;;7.65;3.00;;;;;;;;;;5069533;28;20028;-71
2021/08/07 02:38:35;;;;;;;4.63;2.50;;;;;;;;;;5073593;28;20036;-70
2021/08/07 02:41:02;;;;;;;4.55;2.22;;;;;;;;;;5076470;28;20024;-70
2021/08/07 02:43:29;;;;;;;3.78;2.20;;;;;;;;;;5079345;28;20023;-70
2021/08/07 02:45:55;;;;;;;7.18;2.33;;;;;;;;;;5069527;28;20090;-70
2021/08/07 02:48:24;;;;;;;7.07;2.45;;;;;;;;;;5073568;28;20024;-70
2021/08/07 02:50:50;;;;;;;5.60;2.33;;;;;;;;;;5070710;28;20088;-70
2021/08/07 02:53:17;;;;;;;6.57;2.15;;;;;;;;;;5069736;28;20027;-70
2021/08/07 02:55:44;;;;;;;6.18;2.60;;;;;;;;;;5076593;28;20036;-70
2021/08/07 02:58:10;;;;;;;5.85;2.35;;;;;;;;;;5069216;28;20439;-70
2021/08/07 03:00:38;;;;;;;4.60;2.40;;;;;;;;;;5068480;28;20024;-70
2021/08/07 03:03:05;;;;;;;4.05;2.63;;;;;;;;;;5068399;28;20036;-70
2021/08/07 03:05:31;;;;;;;4.80;2.30;;;;;;;;;;5068044;28;20393;-70
2021/08/07 03:07:57;;;;;;;3.80;2.53;;;;;;;;;;5063156;28;20850;-70
2021/08/07 03:10:24;;;;;;;5.20;2.63;;;;;;;;;;5062139;28;20077;-70
2021/08/07 03:12:53;;;;;;;4.50;2.28;;;;;;;;;;5063351;28;20089;-70
2021/08/07 03:15:20;;;;;;;6.82;2.30;;;;;;;;;;5063112;28;20384;-70
2021/08/07 03:17:46;;;;;;;7.20;2.28;;;;;;;;;;5063457;28;20520;-70
2021/08/07 03:20:13;;;;;;;6.18;2.15;;;;;;;;;;5061949;28;20930;-70
2021/08/07 03:22:39;;;;;;;15.52;2.55;;;;;;;;;;5066457;28;20495;-70
2021/08/07 03:25:06;;;;;;;4.05;2.00;;;;;;;;;;5062962;28;20041;-70
2021/08/07 03:27:32;;;;;;;8.65;2.53;;;;;;;;;;5062285;28;20140;-70
2021/08/07 03:29:58;;;;;;;6.20;2.20;;;;;;;;;;5063036;28;20037;-70
2021/08/07 03:32:24;;;;;;;5.18;2.03;;;;;;;;;;5068569;28;20021;-70
2021/08/07 03:34:50;;;;;;;5.57;2.05;;;;;;;;;;5062549;28;20111;-70
2021/08/07 03:37:17;;;;;;;5.28;2.17;;;;;;;;;;5061549;28;20021;-70
2021/08/07 03:39:43;;;;;;;6.25;2.60;;;;;;;;;;5063939;28;20032;-70
2021/08/07 03:42:09;;;;;;;5.88;1.95;;;;;;;;;;5061727;28;20048;-70
2021/08/07 03:44:35;;;;;;;3.33;1.80;;;;;;;;;;5063013;28;20047;-70
2021/08/07 03:47:01;;;;;;;4.43;2.33;;;;;;;;;;5063168;28;20066;-70
2021/08/07 03:49:27;;;;;;;4.22;2.08;;;;;;;;;;5074969;28;20165;-71
2021/08/07 03:51:54;;;;;;;4.63;2.00;;;;;;;;;;5074611;28;20031;-70
2021/08/07 03:54:20;;;;;;;5.47;2.40;;;;;;;;;;5082896;28;20026;-70
2021/08/07 03:56:46;;;;;;;5.45;2.20;;;;;;;;;;5082632;28;20024;-72
2021/08/07 03:59:12;;;;;;;6.30;2.10;;;;;;;;;;5082719;28;20016;-70
2021/08/07 04:01:38;;;;;;;4.90;2.78;;;;;;;;;;5081357;28;20043;-70
2021/08/07 04:04:06;;;;;;;4.82;2.20;;;;;;;;;;5081562;28;20031;-70
2021/08/07 04:06:32;;;;;;;4.10;2.28;;;;;;;;;;5083067;28;20479;-70
2021/08/07 04:08:58;;;;;;;4.35;2.55;;;;;;;;;;5082280;28;20115;-70
2021/08/07 04:11:24;;;;;;;6.80;2.85;;;;;;;;;;5082446;28;20013;-70
2021/08/07 04:13:50;;;;;;;5.43;2.53;;;;;;;;;;5082723;28;20040;-70
2021/08/07 04:16:16;;;;;;;6.05;2.40;;;;;;;;;;5081099;28;20016;-70
2021/08/07 04:18:43;;;;;;;4.60;2.60;;;;;;;;;;5082109;28;20040;-72
2021/08/07 04:21:09;;;;;;;5.43;2.67;;;;;;;;;;5081872;28;20028;-70
2021/08/07 04:23:35;;;;;;;4.07;2.50;;;;;;;;;;5072351;28;20032;-70
2021/08/07 04:26:01;;;;;;;4.38;2.40;;;;;;;;;;5067425;28;20024;-70
2021/08/07 04:28:27;;;;;;;6.32;2.88;;;;;;;;;;5071275;28;20089;-70
2021/08/07 04:30:53;;;;;;;5.13;2.42;;;;;;;;;;5069398;28;20055;-70
2021/08/07 04:33:20;;;;;;;4.15;2.60;;;;;;;;;;5072518;28;20044;-70
2021/08/07 04:35:46;;;;;;;4.68;2.42;;;;;;;;;;5070477;28;20253;-70
2021/08/07 04:38:12;;;;;;;5.93;2.63;;;;;;;;;;5073185;28;20039;-70
2021/08/07 04:40:38;;;;;;;3.55;2.10;;;;;;;;;;5079934;28;20077;-71
2021/08/07 04:43:04;;;;;;;4.97;2.10;;;;;;;;;;5080345;28;20380;-71
2021/08/07 04:45:31;;;;;;;5.97;2.80;;;;;;;;;;5071672;28;20028;-70
2021/08/07 04:47:58;;;;;;;6.57;2.70;;;;;;;;;;5069565;28;20372;-70
2021/08/07 04:50:26;;;;;;;6.35;2.83;;;;;;;;;;5070139;28;20020;-70
2021/08/07 04:52:53;;;;;;;6.15;2.97;;;;;;;;;;5069998;28;20047;-71
2021/08/07 04:55:19;;;;;;;6.80;2.72;;;;;;;;;;5075016;28;20404;-71
2021/08/07 04:57:45;;;;;;;4.65;2.40;;;;;;;;;;5080435;28;20588;-71
2021/08/07 05:00:12;;;;;;;5.03;2.60;;;;;;;;;;5081034;28;20472;-70
2021/08/07 05:02:38;;;;;;;4.55;2.90;;;;;;;;;;5080647;28;20027;-70
2021/08/07 05:05:04;;;;;;;8.68;3.80;;;;;;;;;;5082102;28;20039;-70
2021/08/07 05:07:31;;;;;;;7.15;3.08;;;;;;;;;;5080190;28;20157;-74
2021/08/07 05:09:58;;;;;;;6.07;3.00;;;;;;;;;;5082061;28;20081;-72
2021/08/07 05:12:27;;;;;;;4.15;3.05;;;;;;;;;;5081838;28;20027;-70
2021/08/07 05:14:53;;;;;;;6.43;3.17;;;;;;;;;;5081836;28;20028;-71
2021/08/07 05:17:19;;;;;;;23.65;4.15;;;;;;;;;;5079188;28;20093;-73
2021/08/07 05:19:45;;;;;;;6.05;3.53;;;;;;;;;;5081525;28;20094;-74
2021/08/07 05:22:11;;;;;;;8.13;3.10;;;;;;;;;;5079894;28;20540;-74
2021/08/07 05:24:38;;;;;;;6.70;2.90;;;;;;;;;;5067963;28;20032;-74
2021/08/07 05:27:04;;;;;;;5.07;3.17;;;;;;;;;;5081944;28;20045;-74
2021/08/07 05:29:30;;;;;;;8.82;3.55;;;;;;;;;;5081853;28;20556;-73
2021/08/07 05:31:56;;;;;;;4.85;3.10;;;;;;;;;;5079737;28;20020;-74
2021/08/07 05:34:22;;;;;;;7.93;3.60;;;;;;;;;;5084740;28;20028;-73
2021/08/07 05:36:48;;;;;;;5.63;3.10;;;;;;;;;;5085053;28;20788;-74
2021/08/07 05:39:14;;;;;;;6.60;3.30;;;;;;;;;;5085716;28;20088;-74
2021/08/07 05:41:40;;;;;;;6.82;3.58;;;;;;;;;;5085226;28;20024;-74
2021/08/07 05:44:07;;;;;;;8.00;3.40;;;;;;;;;;5084070;28;20038;-74
2021/08/07 05:46:33;;;;;;;8.02;3.53;;;;;;;;;;5073048;28;20032;-74
2021/08/07 05:48:59;;;;;;;7.85;3.13;;;;;;;;;;5082183;28;20020;-74
2021/08/07 05:51:25;;;;;;;5.53;3.55;;;;;;;;;;5072735;28;20016;-74
2021/08/07 05:53:52;;;;;;;6.35;3.15;;;;;;;;;;5084216;28;20092;-73
2021/08/07 05:56:19;;;;;;;8.80;3.63;;;;;;;;;;5085220;28;20031;-73
2021/08/07 05:58:45;;;;;;;7.78;3.60;;;;;;;;;;5085091;28;20067;-74
2021/08/07 06:01:11;;;;;;;9.98;4.35;;;;;;;;;;5084939;28;20024;-71
2021/08/07 06:03:37;;;;;;;16.42;4.63;;;;;;;;;;5080085;28;20400;-73
2021/08/07 06:06:04;;;;;;;18.38;5.90;;;;;;;;;;5080792;28;20032;-73
2021/08/07 06:08:30;;;;;;;14.38;4.40;;;;;;;;;;5074684;28;20031;-74
2021/08/07 06:10:56;;;;;;;8.55;4.25;;;;;;;;;;5069959;28;20056;-72
2021/08/07 06:13:23;;;;;;;6.70;4.10;;;;;;;;;;5085153;28;20479;-73
2021/08/07 06:15:49;;;;;;;9.30;4.65;;;;;;;;;;5084316;28;20036;-74
2021/08/07 06:18:15;;;;;;;11.68;5.07;;;;;;;;;;5071733;28;20174;-73
2021/08/07 06:20:42;;;;;;;13.27;5.13;;;;;;;;;;5074258;28;20032;-74
2021/08/07 06:23:08;;;;;;;6.85;4.40;;;;;;;;;;5074381;28;20008;-73
2021/08/07 06:25:34;;;;;;;8.15;4.15;;;;;;;;;;5072866;28;20028;-75
2021/08/07 06:28:02;;;;;;;29.58;6.32;;;;;;;;;;5073645;28;20043;-74
2021/08/07 06:30:28;;;;;;;11.85;4.80;;;;;;;;;;5072059;28;20055;-74
2021/08/07 06:32:55;;;;;;;10.10;4.45;;;;;;;;;;5072674;28;20583;-74
2021/08/07 06:35:21;;;;;;;11.32;5.75;;;;;;;;;;5072705;28;20047;-74
2021/08/07 06:37:47;;;;;;;7.85;4.75;;;;;;;;;;5072696;28;20021;-74
2021/08/07 06:40:14;;;;;;;11.18;4.78;;;;;;;;;;5072907;28;20024;-74
2021/08/07 06:42:40;;;;;;;9.45;4.18;;;;;;;;;;5078831;28;20024;-74
2021/08/07 06:45:07;;;;;;;5.53;3.17;;;;;;;;;;5084672;28;20032;-73
2021/08/07 06:47:33;;;;;;;5.07;3.13;;;;;;;;;;5079057;28;20027;-74
2021/08/07 06:50:00;;;;;;;6.78;3.58;;;;;;;;;;5075423;28;20031;-74
2021/08/07 06:52:26;;;;;;;6.05;3.05;;;;;;;;;;5084224;28;20020;-73
2021/08/07 06:54:52;;;;;;;5.50;2.90;;;;;;;;;;5084188;28;20395;-74
2021/08/07 06:57:19;;;;;;;6.38;3.35;;;;;;;;;;5079849;28;20032;-74
2021/08/07 06:59:46;;;;;;;5.80;3.08;;;;;;;;;;5082560;28;20065;-73
2021/08/07 07:02:12;;;;;;;5.20;3.00;;;;;;;;;;5072035;28;20508;-73
2021/08/07 07:04:38;;;;;;;5.40;2.50;;;;;;;;;;5083767;28;20135;-74
2021/08/07 07:07:05;;;;;;;7.78;2.92;;;;;;;;;;5083591;28;20039;-74
2021/08/07 07:09:31;;;;;;;5.45;3.10;;;;;;;;;;5083835;28;20026;-73
2021/08/07 07:11:57;;;;;;;6.07;3.13;;;;;;;;;;5081134;28;20551;-74
2021/08/07 07:14:24;;;;;;;7.40;3.30;;;;;;;;;;5081738;28;20111;-74
2021/08/07 07:16:50;;;;;;;6.85;3.08;;;;;;;;;;5083409;28;20038;-73
2021/08/07 07:19:16;;;;;;;8.27;2.90;;;;;;;;;;5083866;28;20048;-73
2021/08/07 07:21:43;;;;;;;8.13;3.28;;;;;;;;;;5075200;28;20106;-73
2021/08/07 07:24:09;;;;;;;5.68;3.38;;;;;;;;;;5082474;28;20652;-74
2021/08/07 07:26:35;;;;;;;10.45;3.88;;;;;;;;;;5083150;28;20024;-74
2021/08/07 07:29:02;;;;;;;7.82;3.47;;;;;;;;;;5084263;28;20032;-73
2021/08/07 07:31:28;;;;;;;9.77;3.40;;;;;;;;;;5083471;28;20045;-74
2021/08/07 07:33:54;;;;;;;7.82;3.25;;;;;;;;;;5082421;28;20024;-74
2021/08/07 07:36:21;;;;;;;4.90;3.30;;;;;;;;;;5077620;28;20589;-74
2021/08/07 07:38:47;;;;;;;4.40;2.90;;;;;;;;;;5083602;28;20036;-74
2021/08/07 07:41:13;;;;;;;6.90;3.45;;;;;;;;;;5083538;28;20521;-74
2021/08/07 07:43:39;;;;;;;7.13;3.30;;;;;;;;;;5082727;28;20036;-74
2021/08/07 07:46:06;;;;;;;6.70;3.00;;;;;;;;;;5081766;28;20058;-73
2021/08/07 07:48:32;;;;;;;5.07;3.40;;;;;;;;;;5082978;28;20020;-74
2021/08/07 07:50:58;;;;;;;5.18;2.65;;;;;;;;;;5068615;28;20375;-74
2021/08/07 07:53:25;;;;;;;7.18;3.05;;;;;;;;;;5082552;28;20684;-73
2021/08/07 07:55:51;;;;;;;5.57;2.50;;;;;;;;;;5083296;28;20657;-73
2021/08/07 07:58:17;;;;;;;6.07;2.83;;;;;;;;;;5082033;28;20027;-73
2021/08/07 08:00:43;;;;;;;4.90;2.50;;;;;;;;;;5082181;28;20609;-73
2021/08/07 08:03:10;;;;;;;5.55;2.83;;;;;;;;;;5082703;28;20349;-74
2021/08/07 08:05:36;;;;;;;5.93;2.90;;;;;;;;;;5064458;28;20047;-73
2021/08/07 08:08:02;;;;;;;3.75;2.67;;;;;;;;;;5080652;28;20073;-74
2021/08/07 08:10:29;;;;;;;5.32;2.40;;;;;;;;;;5074225;28;20511;-73
2021/08/07 08:12:55;;;;;;;4.53;2.30;;;;;;;;;;5081399;28;20020;-74
2021/08/07 08:15:22;;;;;;;7.00;2.67;;;;;;;;;;5082711;28;20024;-74
2021/08/07 08:17:48;;;;;;;6.90;3.10;;;;;;;;;;5082562;28;20071;-73
2021/08/07 08:20:14;;;;;;;5.93;2.40;;;;;;;;;;5069072;28;20020;-73
2021/08/07 08:22:41;;;;;;;5.43;2.78;;;;;;;;;;5076441;28;20027;-73
2021/08/07 08:25:10;;;;;;;5.10;2.55;;;;;;;;;;5081035;28;20063;-73
2021/08/07 08:27:36;;;;;;;5.65;2.72;;;;;;;;;;5081906;28;20016;-73
2021/08/07 08:30:02;;;;;;;15.10;2.72;;;;;;;;;;5075587;28;20034;-74
2021/08/07 08:32:28;;;;;;;6.78;3.42;;;;;;;;;;5081703;28;20031;-74
2021/08/07 08:34:55;;;;;;;5.15;2.92;;;;;;;;;;5078507;28;20059;-74
2021/08/07 08:37:21;;;;;;;5.07;2.50;;;;;;;;;;5075690;28;20031;-74
2021/08/07 08:39:47;;;;;;;2.95;2.13;;;;;;;;;;5077357;28;20099;-73
2021/08/07 08:42:13;;;;;;;4.65;2.42;;;;;;;;;;5081611;28;20329;-73
2021/08/07 08:44:40;;;;;;;4.82;2.40;;;;;;;;;;5081277;28;20040;-74
2021/08/07 08:47:08;;;;;;;7.50;2.65;;;;;;;;;;5079144;28;20024;-74
2021/08/07 08:49:35;;;;;;;3.88;2.22;;;;;;;;;;5081750;28;20062;-73
2021/08/07 08:52:01;;;;;;;4.80;2.50;;;;;;;;;;5077662;28;20038;-74
2021/08/07 08:54:28;;;;;;;5.53;2.80;;;;;;;;;;5082196;28;20794;-73
2021/08/07 08:56:55;;;;;;;5.53;2.53;;;;;;;;;;5080097;28;20498;-74
2021/08/07 08:59:21;;;;;;;3.30;2.13;;;;;;;;;;5077675;28;20035;-73
2021/08/07 09:01:48;;;;;;;3.95;2.83;;;;;;;;;;5081139;28;20056;-74
2021/08/07 09:04:15;;;;;;;4.90;2.88;;;;;;;;;;5078230;28;20032;-74
2021/08/07 09:06:41;;;;;;;4.78;2.72;;;;;;;;;;5076237;28;20024;-74
2021/08/07 09:09:09;;;;;;;7.20;3.30;;;;;;;;;;5076857;28;20024;-74
2021/08/07 09:11:36;;;;;;;8.02;2.80;;;;;;;;;;5081068;28;20532;-74
2021/08/07 09:14:14;;;;;;;5.28;2.90;;;;;;;;;;5081172;28;20643;-74
2021/08/07 09:17:00;;;;;;;6.03;3.05;;;;;;;;;;5081414;28;20031;-74
2021/08/07 09:19:47;;;;;;;5.30;3.47;;;;;;;;;;5061626;28;20048;-74
2021/08/07 09:22:24;;;;;;;13.18;2.75;;;;;;;;;;5070202;28;20048;-74
2021/08/07 09:25:03;;;;;;;4.38;2.20;;;;;;;;;;5070116;28;20043;-75
2021/08/07 09:27:37;;;;;;;3.20;2.35;;;;;;;;;;5080465;28;20032;-73
2021/08/07 09:30:05;;;;;;;6.13;2.47;;;;;;;;;;5080949;28;20036;-74
2021/08/07 09:32:44;;;;;;;4.72;2.53;;;;;;;;;;5079490;28;20031;-74
2021/08/07 09:35:11;;;;;;;4.95;2.53;;;;;;;;;;5080529;28;20036;-75
2021/08/07 09:37:37;;;;;;;7.03;2.97;;;;;;;;;;5080954;28;20016;-74
2021/08/07 09:40:05;;;;;;;5.25;2.70;;;;;;;;;;5080253;28;20054;-74
2021/08/07 09:42:32;;;;;;;5.45;2.63;;;;;;;;;;5080993;28;20020;-74
2021/08/07 09:45:05;;;;;;;7.82;2.97;;;;;;;;;;5079210;28;20555;-73
2021/08/07 09:47:32;;;;;;;5.63;2.70;;;;;;;;;;5076620;28;20052;-73
2021/08/07 09:50:00;;;;;;;5.07;2.20;;;;;;;;;;5081075;28;20024;-74
2021/08/07 09:52:39;;;;;;;5.32;2.63;;;;;;;;;;5080669;28;20016;-74
2021/08/07 09:55:05;;;;;;;4.97;2.85;;;;;;;;;;5081252;28;20027;-74
2021/08/07 09:57:32;;;;;;;4.25;2.10;;;;;;;;;;5080645;28;20175;-73
2021/08/07 09:59:58;;;;;;;4.65;2.40;;;;;;;;;;5072275;28;20621;-73
2021/08/07 10:02:31;;;;;;;4.07;2.60;;;;;;;;;;5076077;28;20062;-73
2021/08/07 10:04:58;;;;;;;4.65;2.22;;;;;;;;;;5080996;28;20032;-73
2021/08/07 10:07:24;;;;;;;6.68;2.30;;;;;;;;;;5076633;28;20027;-73
2021/08/07 10:09:50;;;;;;;3.80;2.42;;;;;;;;;;5080602;28;20039;-73
2021/08/07 10:12:17;;;;;;;6.28;2.20;;;;;;;;;;5079539;28;20052;-73
2021/08/07 10:14:43;;;;;;;7.50;2.40;;;;;;;;;;5080336;28;20619;-73
2021/08/07 10:17:11;;;;;;;6.35;2.58;;;;;;;;;;5079204;28;20040;-73
2021/08/07 10:19:38;;;;;;;6.38;2.28;;;;;;;;;;5081626;28;20032;-73
2021/08/07 10:22:08;;;;;;;4.78;2.30;;;;;;;;;;5084411;28;20115;-74
2021/08/07 10:24:36;;;;;;;5.05;2.08;;;;;;;;;;5080695;28;20051;-73
2021/08/07 10:27:02;;;;;;;4.55;2.22;;;;;;;;;;5082512;28;20027;-73
2021/08/07 10:29:35;;;;;;;3.88;2.22;;;;;;;;;;5082724;28;20040;-74
2021/08/07 10:32:02;;;;;;;5.30;2.47;;;;;;;;;;5073735;28;20036;-74
2021/08/07 10:34:29;;;;;;;6.97;2.60;;;;;;;;;;5083147;28;20089;-74
2021/08/07 10:36:55;;;;;;;4.45;2.30;;;;;;;;;;5083836;28;20020;-73
2021/08/07 10:39:21;;;;;;;5.63;1.95;;;;;;;;;;5082735;28;20024;-73
2021/08/07 10:41:48;;;;;;;5.47;2.20;;;;;;;;;;5084086;28;20035;-74
2021/08/07 10:44:14;;;;;;;10.77;2.80;;;;;;;;;;5083761;28;20094;-74
2021/08/07 10:46:40;;;;;;;5.32;2.38;;;;;;;;;;5081720;28;20380;-73
2021/08/07 10:49:08;;;;;;;5.38;2.55;;;;;;;;;;5083177;28;20070;-72
2021/08/07 10:51:35;;;;;;;5.32;2.33;;;;;;;;;;5083462;28;20028;-72
2021/08/07 10:54:03;;;;;;;4.45;2.05;;;;;;;;;;5083509;28;20031;-71
2021/08/07 10:56:29;;;;;;;9.43;2.80;;;;;;;;;;5072223;28;20020;-73
2021/08/07 10:58:59;;;;;;;3.38;2.10;;;;;;;;;;5083684;28;20076;-72
2021/08/07 11:01:25;;;;;;;7.72;2.35;;;;;;;;;;5071403;28;20593;-70
2021/08/07 11:04:06;;;;;;;5.18;3.00;;;;;;;;;;5081431;28;20039;-71
2021/08/07 11:06:44;;;;;;;5.22;2.35;;;;;;;;;;5070763;28;20024;-73
2021/08/07 11:09:17;;;;;;;4.38;2.20;;;;;;;;;;5083098;28;20128;-72
2021/08/07 11:11:44;;;;;;;4.90;2.58;;;;;;;;;;5081977;28;20111;-71
2021/08/07 11:14:25;;;;;;;5.57;1.83;;;;;;;;;;5075352;28;20029;-71
2021/08/07 11:17:06;;;;;;;3.22;2.15;;;;;;;;;;5074751;28;20032;-71
2021/08/07 11:19:50;;;;;;;4.57;1.83;;;;;;;;;;5071425;28;20075;-71
2021/08/07 11:22:16;;;;;;;6.30;2.08;;;;;;;;;;5071390;28;20066;-71
2021/08/07 11:25:01;;;;;;;4.68;2.20;;;;;;;;;;5071830;28;20047;-72
2021/08/07 11:30:16;;;;;;;5.00;2.40;;;;;;;;;;5062396;28;20039;-69
2021/08/07 11:32:43;;;;;;;3.95;2.33;;;;;;;;;;5071275;28;20035;-71
2021/08/07 11:35:09;;;;;;;4.00;2.28;;;;;;;;;;5068890;28;20043;-69
2021/08/07 11:37:35;;;;;;;3.70;2.05;;;;;;;;;;5073130;28;20024;-73
2021/08/07 11:40:05;;;;;;;4.55;1.92;;;;;;;;;;5069780;28;20349;-72
2021/08/07 11:42:34;;;;;;;6.25;1.92;;;;;;;;;;5081259;28;20812;-72
2021/08/07 11:45:01;;;;;;;4.35;2.10;;;;;;;;;;5082363;28;20038;-72
2021/08/07 11:47:27;;;;;;;3.92;1.98;;;;;;;;;;5079957;28;20476;-72
2021/08/07 11:49:54;;;;;;;7.28;2.42;;;;;;;;;;5080155;28;20032;-72
2021/08/07 11:52:20;;;;;;;4.93;1.67;;;;;;;;;;5082576;28;20022;-72
2021/08/07 11:54:46;;;;;;;4.22;2.20;;;;;;;;;;5079901;28;20063;-72
2021/08/07 11:57:22;;;;;;;4.05;2.20;;;;;;;;;;5079412;28;20047;-73
2021/08/07 11:59:49;;;;;;;4.45;2.00;;;;;;;;;;5079581;28;20036;-72
2021/08/07 12:02:16;;;;;;;5.60;2.67;;;;;;;;;;5080939;28;20544;-72
2021/08/07 12:04:42;;;;;;;3.63;2.22;;;;;;;;;;5080922;28;20063;-72
2021/08/07 12:07:15;;;;;;;4.07;2.25;;;;;;;;;;5084198;28;20171;-72
2021/08/07 12:10:00;;;;;;;4.18;2.20;;;;;;;;;;5076311;28;20028;-73
2021/08/07 12:12:26;;;;;;;4.93;2.42;;;;;;;;;;5082240;28;20043;-72
2021/08/07 12:14:52;;;;;;;5.10;2.50;;;;;;;;;;5082553;28;20030;-73
2021/08/07 12:17:18;;;;;;;4.07;2.65;;;;;;;;;;5081221;28;20507;-72
2021/08/07 12:19:45;;;;;;;3.67;2.28;;;;;;;;;;5081913;28;20020;-72
2021/08/07 12:22:11;;;;;;;4.97;2.45;;;;;;;;;;5081550;28;20506;-73
2021/08/07 12:24:37;;;;;;;4.13;1.98;;;;;;;;;;5076774;28;20056;-72
2021/08/07 12:27:04;;;;;;;3.78;2.42;;;;;;;;;;5081918;28;20147;-72
2021/08/07 12:29:32;;;;;;;5.82;2.42;;;;;;;;;;5081198;28;20035;-72
2021/08/07 12:31:59;;;;;;;4.13;2.00;;;;;;;;;;5079951;28;20027;-72
2021/08/07 12:34:29;;;;;;;4.30;2.15;;;;;;;;;;5073635;28;20032;-72
2021/08/07 12:36:57;;;;;;;4.82;2.53;;;;;;;;;;5081961;28;20016;-72
2021/08/07 12:39:24;;;;;;;6.07;2.67;;;;;;;;;;5081673;28;20066;-72
2021/08/07 12:41:50;;;;;;;3.88;2.60;;;;;;;;;;5074675;28;20031;-72
2021/08/07 12:44:23;;;;;;;3.30;2.38;;;;;;;;;;5081127;28;20047;-72
2021/08/07 12:46:53;;;;;;;6.40;2.60;;;;;;;;;;5081344;28;20019;-72
2021/08/07 12:49:34;;;;;;;4.63;2.58;;;;;;;;;;5080945;28;20050;-72
2021/08/07 12:52:01;;;;;;;5.90;3.00;;;;;;;;;;5079685;28;20384;-72
2021/08/07 12:54:27;;;;;;;4.78;2.83;;;;;;;;;;5080712;28;20016;-72
2021/08/07 12:56:53;;;;;;;4.53;3.10;;;;;;;;;;5080995;28;20059;-72
2021/08/07 12:59:19;;;;;;;3.70;2.97;;;;;;;;;;5081324;28;20406;-72
2021/08/07 13:02:03;;;;;;;5.60;3.10;;;;;;;;;;5079891;28;20032;-72
2021/08/07 13:04:43;;;;;;;8.77;2.80;;;;;;;;;;5081121;28;20667;-72
2021/08/07 13:07:10;;;;;;;9.50;3.10;;;;;;;;;;5067311;28;20165;-72
2021/08/07 13:09:36;;;;;;;5.15;2.63;;;;;;;;;;5079809;28;20027;-73
2021/08/07 13:12:02;;;;;;;4.85;2.25;;;;;;;;;;5073108;28;20033;-72
2021/08/07 13:14:28;;;;;;;4.13;2.40;;;;;;;;;;5080574;28;20044;-73
2021/08/07 13:16:55;;;;;;;4.93;2.72;;;;;;;;;;5081233;28;20035;-73
2021/08/07 13:19:22;;;;;;;7.35;3.10;;;;;;;;;;5081584;28;20551;-72
2021/08/07 13:21:49;;;;;;;4.65;2.40;;;;;;;;;;5067519;28;20053;-73
2021/08/07 13:24:25;;;;;;;4.80;2.60;;;;;;;;;;5081227;28;20812;-72
2021/08/07 13:26:51;;;;;;;4.57;2.63;;;;;;;;;;5081426;28;20592;-73
2021/08/07 13:29:18;;;;;;;4.80;2.58;;;;;;;;;;5069115;28;20111;-73
2021/08/07 13:31:44;;;;;;;4.65;2.42;;;;;;;;;;5076576;28;20032;-73
2021/08/07 13:34:10;;;;;;;5.53;2.85;;;;;;;;;;5079395;28;20495;-73
2021/08/07 13:36:36;;;;;;;3.30;2.67;;;;;;;;;;5078131;28;20465;-72
2021/08/07 13:39:03;;;;;;;6.57;3.05;;;;;;;;;;5080902;28;20614;-72
2021/08/07 13:41:29;;;;;;;5.40;3.00;;;;;;;;;;5079481;28;20032;-72
2021/08/07 13:43:55;;;;;;;4.57;2.70;;;;;;;;;;5081014;28;20031;-72
2021/08/07 13:46:21;;;;;;;4.43;2.92;;;;;;;;;;5081261;28;20028;-72
2021/08/07 13:48:47;;;;;;;6.30;2.90;;;;;;;;;;5080722;28;20032;-71
2021/08/07 13:51:13;;;;;;;6.97;3.00;;;;;;;;;;5070174;28;20071;-71
2021/08/07 13:53:39;;;;;;;6.28;2.92;;;;;;;;;;5083547;28;20123;-72
2021/08/07 13:56:06;;;;;;;6.03;2.72;;;;;;;;;;5084544;28;20026;-71
2021/08/07 13:58:32;;;;;;;6.30;2.70;;;;;;;;;;5084589;28;20055;-71
2021/08/07 14:00:58;;;;;;;4.05;2.47;;;;;;;;;;5079449;28;20036;-71
2021/08/07 14:03:24;;;;;;;6.30;2.70;;;;;;;;;;5071040;28;20082;-71
2021/08/07 14:05:51;;;;;;;7.20;2.90;;;;;;;;;;5080545;28;20594;-70
2021/08/07 14:08:17;;;;;;;4.80;2.75;;;;;;;;;;5084606;28;20020;-71
2021/08/07 14:10:43;;;;;;;4.65;2.92;;;;;;;;;;5083310;28;20028;-71
2021/08/07 14:13:10;;;;;;;7.88;2.88;;;;;;;;;;5084901;28;20028;-71
2021/08/07 14:15:36;;;;;;;7.22;2.78;;;;;;;;;;5084768;28;20073;-70
2021/08/07 14:18:05;;;;;;;3.17;2.53;;;;;;;;;;5071707;28;20660;-72
2021/08/07 14:20:32;;;;;;;6.57;3.13;;;;;;;;;;5081928;28;20035;-71
2021/08/07 14:22:58;;;;;;;4.65;2.67;;;;;;;;;;5084339;28;20070;-71
2021/08/07 14:25:25;;;;;;;8.75;2.80;;;;;;;;;;5084488;28;20023;-71
2021/08/07 14:27:51;;;;;;;6.93;3.13;;;;;;;;;;5083735;28;20050;-71
2021/08/07 14:30:18;;;;;;;7.65;3.60;;;;;;;;;;5082489;28;20016;-70
2021/08/07 14:32:44;;;;;;;6.55;3.47;;;;;;;;;;5082793;28;20376;-72
2021/08/07 14:35:10;;;;;;;7.30;3.03;;;;;;;;;;5083697;28;20040;-71
2021/08/07 14:37:36;;;;;;;5.97;2.85;;;;;;;;;;5084487;28;20043;-71
2021/08/07 14:40:02;;;;;;;4.72;2.80;;;;;;;;;;5079733;28;20028;-70
2021/08/07 14:42:29;;;;;;;4.15;2.80;;;;;;;;;;5073657;28;20088;-70
2021/08/07 14:44:55;;;;;;;6.80;2.95;;;;;;;;;;5083893;28;20028;-71
2021/08/07 14:47:21;;;;;;;8.90;3.03;;;;;;;;;;5080062;28;20077;-71